Yahata Maru — JL6477 — position and weather

sailwx.info

Track history (hours):
 
Tides and Currents Weather Stations Pressure Air Temp Water Temp Dewpoint Dewpoint Depression Visibility Wind Speed Wind Dir Waves Ship Positions

Yahata Maru

Last reported at 2017-Nov-19 19:56 UTC. Time now 2017-Nov-21 20:58 UTC.
Position N 35°32' E 140°01'.

Length 149 m; draft 4.7 m.

Type: Other ship. MMSI: 431400594.

Date/timePositionNaut miles runAvg speedWind from/ knotsBaromVisibWave heightAir tempDewpointWater temp
2017-Nov-19 19:56N 35°32' E 140°01'0 0.0
2017-Nov-19 17:47N 35°32' E 140°01'0 0.7
2017-Nov-19 17:30N 35°32' E 140°00'4 8.1
2017-Nov-19 17:01N 35°31' E 139°56'5 9.5
2017-Nov-19 16:31N 35°28' E 139°51'5 9.2
2017-Nov-19 16:00N 35°25' E 139°47'4 9.0
2017-Nov-19 15:30N 35°21' E 139°45'4 8.6
2017-Nov-19 15:00N 35°16' E 139°46'4 7.9
2017-Nov-19 14:30N 35°13' E 139°47'4 7.8
2017-Nov-19 14:00N 35°09' E 139°45'4 7.9
2017-Nov-19 13:30N 35°05' E 139°43'4 8.6
2017-Nov-19 13:00N 35°02' E 139°39'4 8.6
2017-Nov-19 12:30N 34°60' E 139°35'5 9.0
2017-Nov-19 12:00N 34°57' E 139°31'  
2017-Nov-16 11:03N 34°34' E 134°49'411.9
2017-Nov-16 10:45N 34°35' E 134°53'311.4
2017-Nov-16 10:30N 34°36' E 134°56'511.0
2017-Nov-16 10:01N 34°36' E 135°03'510.5
2017-Nov-16 09:31N 34°37' E 135°09'5 9.7
2017-Nov-16 09:00N 34°37' E 135°15'4 8.5
2017-Nov-16 08:30N 34°41' E 135°18'3 5.6
2017-Nov-16 07:59N 34°43' E 135°21'0 0.3
2017-Nov-16 07:30N 34°43' E 135°21'0 0.0
2017-Nov-16 06:46N 34°43' E 135°21'0 0.0
2017-Nov-16 06:16N 34°43' E 135°21'0 0.0
2017-Nov-16 05:58N 34°43' E 135°21'0 0.0
2017-Nov-16 05:04N 34°43' E 135°21'0 0.0
2017-Nov-16 04:46N 34°43' E 135°21'0 0.0
2017-Nov-16 04:22N 34°43' E 135°21'0 0.0
2017-Nov-16 03:35N 34°43' E 135°21'0 0.1
2017-Nov-16 03:30N 34°43' E 135°21'1 1.4
2017-Nov-16 03:00N 34°42' E 135°21'4 7.1
2017-Nov-16 02:30N 34°39' E 135°18'5 9.4
2017-Nov-16 02:00N 34°35' E 135°16'5 9.3
2017-Nov-16 01:30N 34°31' E 135°13'5 9.3
2017-Nov-16 01:00N 34°28' E 135°09'5 9.2
2017-Nov-16 00:28N 34°24' E 135°05'8 9.5
2017-Nov-15 23:40N 34°18' E 134°59'2 9.8
2017-Nov-15 23:29N 34°16' E 134°59'510.1
2017-Nov-15 23:00N 34°11' E 134°60'5 9.5
2017-Nov-15 22:30N 34°07' E 135°00'5 9.2
2017-Nov-15 22:00N 34°02' E 135°01'223 5.8
2017-Nov-14 07:12N 34°58' E 139°23'2 9.1
2017-Nov-14 06:59N 34°59' E 139°25'5 8.9
2017-Nov-14 06:27N 35°02' E 139°30'4 8.7
2017-Nov-14 06:00N 35°04' E 139°35'4 9.0
2017-Nov-14 05:30N 35°06' E 139°39'4 8.7
2017-Nov-14 05:00N 35°09' E 139°43'5 9.3
2017-Nov-14 04:30N 35°13' E 139°46'5 9.1
2017-Nov-14 04:00N 35°17' E 139°45'5 9.3
2017-Nov-14 03:30N 35°21' E 139°42'5 9.5
2017-Nov-14 03:00N 35°26' E 139°43'2 3.5
2017-Nov-14 02:28N 35°28' E 139°43'0 0.0
2017-Nov-14 01:58N 35°28' E 139°43'0 0.0
2017-Nov-14 01:25N 35°28' E 139°43'0 0.0
2017-Nov-14 00:58N 35°28' E 139°43'0 0.0
2017-Nov-14 00:28N 35°28' E 139°43'0 0.0
2017-Nov-13 23:58N 35°28' E 139°43'0 0.4
2017-Nov-13 23:31N 35°28' E 139°43'3 6.2
2017-Nov-13 23:00N 35°27' E 139°46'510.0
2017-Nov-13 22:30N 35°30' E 139°51'510.1
2017-Nov-13 22:01N 35°33' E 139°57'15 0.8
2017-Nov-13 01:52N 35°21' E 139°44'0 0.0
2017-Nov-13 01:28N 35°21' E 139°44'0 0.0
2017-Nov-13 00:58N 35°21' E 139°44'0 0.1
2017-Nov-13 00:28N 35°21' E 139°44'0 0.0
2017-Nov-12 23:58N 35°21' E 139°44'0 0.0
2017-Nov-12 23:28N 35°21' E 139°44'0 0.0
2017-Nov-12 22:58N 35°21' E 139°44'0 0.0
2017-Nov-12 22:28N 35°21' E 139°44'0 0.1
2017-Nov-12 21:58N 35°21' E 139°44'0 0.1
2017-Nov-12 21:28N 35°21' E 139°44'0 0.0
2017-Nov-12 20:55N 35°21' E 139°44'0 0.1
2017-Nov-12 20:28N 35°21' E 139°44'0 0.0
2017-Nov-12 19:58N 35°21' E 139°44'0 0.0
2017-Nov-12 19:28N 35°21' E 139°44'1 1.5
2017-Nov-12 19:01N 35°21' E 139°44'4 8.2
2017-Nov-12 18:31N 35°17' E 139°45'4 8.2
2017-Nov-12 18:00N 35°13' E 139°47'4 9.0
2017-Nov-12 17:30N 35°09' E 139°45'5 9.1
2017-Nov-12 17:00N 35°05' E 139°41'5 9.8
2017-Nov-12 16:30N 35°02' E 139°37'5 9.9
2017-Nov-12 15:58N 34°59' E 139°32'  
Track history (hours):
 
Tides and Currents Weather Stations Pressure Air Temp Water Temp Dewpoint Dewpoint Depression Visibility Wind Speed Wind Dir Waves Ship Positions

Yahata Maru

Last reported at 2017-Nov-19 19:56 UTC. Time now 2017-Nov-21 20:58 UTC.
Position N 35°32' E 140°01'.

Length 149 m; draft 4.7 m.

Type: Other ship. MMSI: 431400594.

Date/timePositionNaut miles runAvg speedWind from/ knotsBaromVisibWave heightAir tempDewpointWater temp
2017-Nov-19 19:56N 35°32' E 140°01'0 0.0
2017-Nov-19 17:47N 35°32' E 140°01'0 0.7
2017-Nov-19 17:30N 35°32' E 140°00'4 8.1
2017-Nov-19 17:01N 35°31' E 139°56'5 9.5
2017-Nov-19 16:31N 35°28' E 139°51'5 9.2
2017-Nov-19 16:00N 35°25' E 139°47'4 9.0
2017-Nov-19 15:30N 35°21' E 139°45'4 8.6
2017-Nov-19 15:00N 35°16' E 139°46'4 7.9
2017-Nov-19 14:30N 35°13' E 139°47'4 7.8
2017-Nov-19 14:00N 35°09' E 139°45'4 7.9
2017-Nov-19 13:30N 35°05' E 139°43'4 8.6
2017-Nov-19 13:00N 35°02' E 139°39'4 8.6
2017-Nov-19 12:30N 34°60' E 139°35'5 9.0
2017-Nov-19 12:00N 34°57' E 139°31'  
2017-Nov-16 11:03N 34°34' E 134°49'411.9
2017-Nov-16 10:45N 34°35' E 134°53'311.4
2017-Nov-16 10:30N 34°36' E 134°56'511.0
2017-Nov-16 10:01N 34°36' E 135°03'510.5
2017-Nov-16 09:31N 34°37' E 135°09'5 9.7
2017-Nov-16 09:00N 34°37' E 135°15'4 8.5
2017-Nov-16 08:30N 34°41' E 135°18'3 5.6
2017-Nov-16 07:59N 34°43' E 135°21'0 0.3
2017-Nov-16 07:30N 34°43' E 135°21'0 0.0
2017-Nov-16 06:46N 34°43' E 135°21'0 0.0
2017-Nov-16 06:16N 34°43' E 135°21'0 0.0
2017-Nov-16 05:58N 34°43' E 135°21'0 0.0
2017-Nov-16 05:04N 34°43' E 135°21'0 0.0
2017-Nov-16 04:46N 34°43' E 135°21'0 0.0
2017-Nov-16 04:22N 34°43' E 135°21'0 0.0
2017-Nov-16 03:35N 34°43' E 135°21'0 0.1
2017-Nov-16 03:30N 34°43' E 135°21'1 1.4
2017-Nov-16 03:00N 34°42' E 135°21'4 7.1
2017-Nov-16 02:30N 34°39' E 135°18'5 9.4
2017-Nov-16 02:00N 34°35' E 135°16'5 9.3
2017-Nov-16 01:30N 34°31' E 135°13'5 9.3
2017-Nov-16 01:00N 34°28' E 135°09'5 9.2
2017-Nov-16 00:28N 34°24' E 135°05'8 9.5
2017-Nov-15 23:40N 34°18' E 134°59'2 9.8
2017-Nov-15 23:29N 34°16' E 134°59'510.1
2017-Nov-15 23:00N 34°11' E 134°60'5 9.5
2017-Nov-15 22:30N 34°07' E 135°00'5 9.2
2017-Nov-15 22:00N 34°02' E 135°01'223 5.8
2017-Nov-14 07:12N 34°58' E 139°23'2 9.1
2017-Nov-14 06:59N 34°59' E 139°25'5 8.9
2017-Nov-14 06:27N 35°02' E 139°30'4 8.7
2017-Nov-14 06:00N 35°04' E 139°35'4 9.0
2017-Nov-14 05:30N 35°06' E 139°39'4 8.7
2017-Nov-14 05:00N 35°09' E 139°43'5 9.3
2017-Nov-14 04:30N 35°13' E 139°46'5 9.1
2017-Nov-14 04:00N 35°17' E 139°45'5 9.3
2017-Nov-14 03:30N 35°21' E 139°42'5 9.5
2017-Nov-14 03:00N 35°26' E 139°43'2 3.5
2017-Nov-14 02:28N 35°28' E 139°43'0 0.0
2017-Nov-14 01:58N 35°28' E 139°43'0 0.0
2017-Nov-14 01:25N 35°28' E 139°43'0 0.0
2017-Nov-14 00:58N 35°28' E 139°43'0 0.0
2017-Nov-14 00:28N 35°28' E 139°43'0 0.0
2017-Nov-13 23:58N 35°28' E 139°43'0 0.4
2017-Nov-13 23:31N 35°28' E 139°43'3 6.2
2017-Nov-13 23:00N 35°27' E 139°46'510.0
2017-Nov-13 22:30N 35°30' E 139°51'510.1
2017-Nov-13 22:01N 35°33' E 139°57'15 0.8
2017-Nov-13 01:52N 35°21' E 139°44'0 0.0
2017-Nov-13 01:28N 35°21' E 139°44'0 0.0
2017-Nov-13 00:58N 35°21' E 139°44'0 0.1
2017-Nov-13 00:28N 35°21' E 139°44'0 0.0
2017-Nov-12 23:58N 35°21' E 139°44'0 0.0
2017-Nov-12 23:28N 35°21' E 139°44'0 0.0
2017-Nov-12 22:58N 35°21' E 139°44'0 0.0
2017-Nov-12 22:28N 35°21' E 139°44'0 0.1
2017-Nov-12 21:58N 35°21' E 139°44'0 0.1
2017-Nov-12 21:28N 35°21' E 139°44'0 0.0
2017-Nov-12 20:55N 35°21' E 139°44'0 0.1
2017-Nov-12 20:28N 35°21' E 139°44'0 0.0
2017-Nov-12 19:58N 35°21' E 139°44'0 0.0
2017-Nov-12 19:28N 35°21' E 139°44'1 1.5
2017-Nov-12 19:01N 35°21' E 139°44'4 8.2
2017-Nov-12 18:31N 35°17' E 139°45'4 8.2
2017-Nov-12 18:00N 35°13' E 139°47'4 9.0
2017-Nov-12 17:30N 35°09' E 139°45'5 9.1
2017-Nov-12 17:00N 35°05' E 139°41'5 9.8
2017-Nov-12 16:30N 35°02' E 139°37'5 9.9
2017-Nov-12 15:58N 34°59' E 139°32'  

Dump ship's entire track history